Time;durP1;ratioP1;P1;durP2;ratioP2;P2;SDS_P1;SDS_P2;PMS_P1;PMS_P2;Temp;Humidity;BMP_temperature;BMP_pressure;BME280_temperature;BME280_humidity;BME280_pressure;Samples;Min_cycle;Max_cycle;Signal;HPM_P1;HPM_P2
2023/04/02 00:00:26;;;;;;;1.23;0.50;;;11.30;99.90;;;;;;5034237;28;20079;-39
2023/04/02 00:02:58;;;;;;;0.90;0.50;;;11.30;99.90;;;;;;5035469;28;20029;-40
2023/04/02 00:05:30;;;;;;;0.47;0.32;;;11.30;99.90;;;;;;5034079;28;20068;-39
2023/04/02 00:08:24;;;;;;;1.75;0.73;;;11.30;99.90;;;;;;5034012;28;20369;-36
2023/04/02 00:11:00;;;;;;;2.38;0.60;;;11.30;99.90;;;;;;5033576;28;20510;-37
2023/04/02 00:13:35;;;;;;;1.48;0.43;;;11.30;99.90;;;;;;5033189;28;20488;-38
2023/04/02 00:16:05;;;;;;;0.98;0.55;;;11.30;99.90;;;;;;5033108;28;20013;-39
2023/04/02 00:18:32;;;;;;;0.60;0.40;;;11.20;99.90;;;;;;5034433;28;20021;-36
2023/04/02 00:21:10;;;;;;;0.63;0.40;;;11.20;99.90;;;;;;5033790;28;20022;-37
2023/04/02 00:23:40;;;;;;;0.55;0.30;;;11.20;99.90;;;;;;5034261;28;20025;-36
2023/04/02 00:26:20;;;;;;;0.70;0.50;;;11.20;99.90;;;;;;5033122;28;20104;-39
2023/04/02 00:28:46;;;;;;;0.63;0.40;;;11.30;99.90;;;;;;5033216;28;20051;-39
2023/04/02 00:31:12;;;;;;;0.85;0.45;;;11.30;99.90;;;;;;5032990;28;20468;-36
2023/04/02 00:33:38;;;;;;;0.88;0.40;;;11.20;99.90;;;;;;5034049;28;20056;-36
2023/04/02 00:36:07;;;;;;;0.80;0.40;;;11.20;99.90;;;;;;5033219;28;20034;-38
2023/04/02 00:38:34;;;;;;;1.65;0.40;;;11.20;99.90;;;;;;5033871;28;20064;-38
2023/04/02 00:41:03;;;;;;;0.50;0.40;;;11.30;99.90;;;;;;5032866;28;20495;-36
2023/04/02 00:43:34;;;;;;;1.15;0.50;;;11.30;99.90;;;;;;5033108;28;20029;-39
2023/04/02 00:46:09;;;;;;;1.27;0.50;;;11.30;99.90;;;;;;5031421;28;20025;-36
2023/04/02 00:48:38;;;;;;;0.93;0.40;;;11.20;99.90;;;;;;5033353;28;20431;-37
2023/04/02 00:51:14;;;;;;;0.40;0.30;;;11.20;99.90;;;;;;5034042;28;20076;-39
2023/04/02 00:53:43;;;;;;;0.50;0.40;;;11.20;99.90;;;;;;5033600;28;20038;-38
2023/04/02 00:56:32;;;;;;;0.63;0.40;;;11.20;99.90;;;;;;5033183;28;20052;-36
2023/04/02 00:58:58;;;;;;;0.82;0.30;;;11.20;99.90;;;;;;5033065;28;20059;-38
2023/04/02 01:01:35;;;;;;;0.90;0.40;;;11.20;99.90;;;;;;5032093;28;20048;-37
2023/04/02 01:04:04;;;;;;;0.77;0.40;;;11.20;99.90;;;;;;5032521;28;20140;-38
2023/04/02 01:06:36;;;;;;;1.45;0.60;;;11.30;99.90;;;;;;5032344;28;20025;-36
2023/04/02 01:09:10;;;;;;;0.55;0.25;;;11.20;99.90;;;;;;5034140;28;20479;-39
2023/04/02 01:11:54;;;;;;;;;;;11.20;99.90;;;;;;5033280;28;20018;-38
2023/04/02 01:14:41;;;;;;;1.33;0.50;;;11.30;99.90;;;;;;5033383;28;19905;-36
2023/04/02 01:17:25;;;;;;;0.43;0.30;;;11.20;99.90;;;;;;5033009;28;20057;-38
2023/04/02 01:20:10;;;;;;;1.38;0.60;;;11.20;99.90;;;;;;5031041;28;20025;-38
2023/04/02 01:23:04;;;;;;;0.60;0.25;;;11.20;99.90;;;;;;5032017;28;20495;-39
2023/04/02 01:25:41;;;;;;;0.45;0.40;;;11.20;99.90;;;;;;5031708;28;20025;-38
2023/04/02 01:28:51;;;;;;;0.63;0.40;;;11.20;99.90;;;;;;5031552;28;20040;-38
2023/04/02 01:31:20;;;;;;;0.63;0.30;;;11.20;99.90;;;;;;5009542;28;20034;-38
2023/04/02 01:33:47;;;;;;;1.20;0.43;;;11.20;99.90;;;;;;5029026;28;20044;-38
2023/04/02 01:36:39;;;;;;;0.93;0.50;;;11.20;99.90;;;;;;5031401;28;20025;-38
2023/04/02 01:39:13;;;;;;;1.35;0.40;;;11.20;99.90;;;;;;5031838;28;20504;-37
2023/04/02 01:41:52;;;;;;;0.80;0.47;;;11.20;99.90;;;;;;5031480;28;20487;-38
2023/04/02 01:44:26;;;;;;;1.08;0.43;;;11.20;99.90;;;;;;5031575;28;20440;-37
2023/04/02 01:46:52;;;;;;;;;;;11.20;99.90;;;;;;5031362;28;20025;-39
2023/04/02 01:49:20;;;;;;;0.60;0.45;;;11.20;99.90;;;;;;5031467;28;19990;-38
2023/04/02 01:51:51;;;;;;;0.40;0.32;;;11.20;99.90;;;;;;5031440;28;20028;-37
2023/04/02 01:54:18;;;;;;;0.70;0.40;;;11.20;99.90;;;;;;5031332;28;20446;-38
2023/04/02 01:56:45;;;;;;;1.65;0.30;;;11.20;99.90;;;;;;5030822;28;20511;-38
2023/04/02 01:59:13;;;;;;;0.50;0.30;;;11.20;99.90;;;;;;5031336;28;20025;-37
2023/04/02 02:01:47;;;;;;;0.40;0.32;;;11.20;99.90;;;;;;5031306;28;20040;-37
2023/04/02 02:04:15;;;;;;;0.65;0.20;;;11.20;99.90;;;;;;5031688;28;20087;-37
2023/04/02 02:06:41;;;;;;;0.63;0.30;;;11.20;99.90;;;;;;5030661;28;20445;-38
2023/04/02 02:09:16;;;;;;;0.55;0.35;;;11.20;99.90;;;;;;5031212;28;20073;-38
2023/04/02 02:11:42;;;;;;;0.50;0.40;;;11.20;99.90;;;;;;5029320;28;20025;-38
2023/04/02 02:14:26;;;;;;;0.43;0.28;;;11.20;99.90;;;;;;5031642;28;20048;-36
2023/04/02 02:17:00;;;;;;;0.80;0.47;;;11.20;99.90;;;;;;5030598;28;20029;-36
2023/04/02 02:19:41;;;;;;;0.77;0.38;;;11.20;99.90;;;;;;5030767;28;20434;-39
2023/04/02 02:22:25;;;;;;;1.00;0.30;;;11.10;99.90;;;;;;5031583;28;20183;-39
2023/04/02 02:24:52;;;;;;;0.43;0.37;;;11.20;99.90;;;;;;5033000;28;20112;-39
2023/04/02 02:27:23;;;;;;;0.70;0.30;;;11.20;99.90;;;;;;5031224;28;20108;-36
2023/04/02 02:30:21;;;;;;;1.05;0.30;;;11.20;99.90;;;;;;5032113;28;20051;-38
2023/04/02 02:33:15;;;;;;;0.20;0.20;;;11.20;99.90;;;;;;5025890;28;20041;-36
2023/04/02 02:36:03;;;;;;;0.30;0.25;;;11.20;99.90;;;;;;5031382;28;20032;-39
2023/04/02 02:38:46;;;;;;;0.85;0.32;;;11.20;99.90;;;;;;5030987;28;20049;-40
2023/04/02 02:41:38;;;;;;;0.60;0.43;;;11.20;99.90;;;;;;5031138;28;20052;-39
2023/04/02 02:44:10;;;;;;;1.30;0.30;;;11.10;99.90;;;;;;5030669;28;20026;-39
2023/04/02 02:46:44;;;;;;;0.68;0.30;;;11.10;99.90;;;;;;5030670;28;20024;-36
2023/04/02 02:49:18;;;;;;;;;;;11.10;99.90;;;;;;5030119;28;20159;-36
2023/04/02 02:51:56;;;;;;;0.93;0.40;;;11.10;99.90;;;;;;5030889;28;19941;-37
2023/04/02 02:54:22;;;;;;;0.50;0.30;;;11.10;99.90;;;;;;5030685;28;20087;-38
2023/04/02 02:56:57;;;;;;;0.88;0.40;;;11.10;99.90;;;;;;5031014;28;20250;-38
2023/04/02 02:59:23;;;;;;;0.55;0.40;;;11.10;99.90;;;;;;5032104;28;20041;-38
2023/04/02 03:01:49;;;;;;;1.02;0.40;;;11.10;99.90;;;;;;5031902;28;20033;-41
2023/04/02 03:04:21;;;;;;;1.00;0.28;;;11.10;99.90;;;;;;5031835;28;20468;-37
2023/04/02 03:06:51;;;;;;;0.70;0.40;;;11.10;99.90;;;;;;5031008;28;20039;-38
2023/04/02 03:09:39;;;;;;;0.80;0.40;;;11.20;99.90;;;;;;5031357;28;20368;-38
2023/04/02 03:12:22;;;;;;;0.60;0.30;;;11.10;99.90;;;;;;5031482;28;20022;-38
2023/04/02 03:15:14;;;;;;;0.40;0.20;;;11.20;99.90;;;;;;5031267;28;20036;-36
2023/04/02 03:18:16;;;;;;;0.77;0.32;;;11.20;99.90;;;;;;5025813;28;20037;-36
2023/04/02 03:20:55;;;;;;;1.52;0.40;;;11.10;99.90;;;;;;5030548;28;20061;-36
2023/04/02 03:23:32;;;;;;;0.45;0.30;;;11.20;99.90;;;;;;5034181;28;20035;-38
2023/04/02 03:26:06;;;;;;;0.50;0.30;;;11.10;99.90;;;;;;5034970;28;20038;-36
2023/04/02 03:28:36;;;;;;;1.42;0.30;;;11.10;99.90;;;;;;5034559;28;20029;-37
2023/04/02 03:31:07;;;;;;;0.40;0.30;;;11.10;99.90;;;;;;5035896;28;20507;-36
2023/04/02 03:33:50;;;;;;;0.32;0.20;;;11.10;99.90;;;;;;5035655;28;20040;-39
2023/04/02 03:36:27;;;;;;;1.33;0.52;;;11.10;99.90;;;;;;5034091;28;20122;-39
2023/04/02 03:39:15;;;;;;;0.28;0.20;;;11.10;99.90;;;;;;5034613;28;20111;-39
2023/04/02 03:41:49;;;;;;;0.68;0.40;;;11.10;99.90;;;;;;5034961;28;20112;-38
2023/04/02 03:44:26;;;;;;;0.93;0.30;;;11.10;99.90;;;;;;5036511;28;20036;-38
2023/04/02 03:46:56;;;;;;;1.95;0.40;;;11.10;99.90;;;;;;5034648;28;20018;-38
2023/04/02 03:49:51;;;;;;;1.15;0.32;;;11.10;99.90;;;;;;5034672;28;20495;-38
2023/04/02 03:52:27;;;;;;;1.70;0.40;;;11.10;99.90;;;;;;5034854;28;20533;-38
2023/04/02 03:54:55;;;;;;;1.02;0.30;;;11.10;99.90;;;;;;5034842;28;20064;-37
2023/04/02 03:57:54;;;;;;;0.52;0.30;;;11.10;99.90;;;;;;5035567;28;20368;-35
2023/04/02 04:00:36;;;;;;;0.52;0.30;;;11.10;99.90;;;;;;5033339;28;20031;-36
2023/04/02 04:03:11;;;;;;;1.38;0.28;;;11.10;99.90;;;;;;5033461;28;20029;-39
2023/04/02 04:05:59;;;;;;;1.08;0.40;;;11.10;99.90;;;;;;5033197;28;20067;-36
2023/04/02 04:08:32;;;;;;;0.35;0.25;;;11.10;99.90;;;;;;5033452;28;20025;-38
2023/04/02 04:11:07;;;;;;;0.30;0.20;;;11.10;99.90;;;;;;5035163;28;20030;-39
2023/04/02 04:13:45;;;;;;;0.73;0.30;;;11.10;99.90;;;;;;5034000;28;20495;-39
2023/04/02 04:16:19;;;;;;;0.63;0.32;;;11.10;99.90;;;;;;5032787;28;20032;-36
2023/04/02 04:18:45;;;;;;;0.80;0.40;;;11.10;99.90;;;;;;5033286;28;20029;-40
2023/04/02 04:21:29;;;;;;;0.30;0.30;;;11.00;99.90;;;;;;5033100;28;20076;-39
2023/04/02 04:24:04;;;;;;;0.40;0.20;;;11.10;99.90;;;;;;5033784;28;20380;-38
2023/04/02 04:27:02;;;;;;;0.95;0.30;;;11.10;99.90;;;;;;5032951;28;20038;-36
2023/04/02 04:29:31;;;;;;;1.10;0.30;;;11.10;99.90;;;;;;5032315;28;20049;-38
2023/04/02 04:32:11;;;;;;;0.45;0.30;;;11.00;99.90;;;;;;5032919;28;20017;-36
2023/04/02 04:34:45;;;;;;;0.55;0.17;;;11.10;99.90;;;;;;5033518;28;20025;-39
2023/04/02 04:37:32;;;;;;;0.50;0.30;;;11.00;99.90;;;;;;5032681;28;20052;-39
2023/04/02 04:40:10;;;;;;;0.45;0.32;;;11.10;99.90;;;;;;5033367;28;20044;-38
2023/04/02 04:42:39;;;;;;;0.40;0.30;;;11.10;99.90;;;;;;5033108;28;20036;-36
2023/04/02 04:45:26;;;;;;;0.50;0.30;;;11.10;99.90;;;;;;5033701;28;20025;-37
2023/04/02 04:48:01;;;;;;;0.88;0.35;;;11.10;99.90;;;;;;5033636;28;20052;-38
2023/04/02 04:50:50;;;;;;;0.30;0.25;;;11.00;99.90;;;;;;5033436;28;20493;-37
2023/04/02 04:53:21;;;;;;;0.60;0.40;;;11.10;99.90;;;;;;5033988;28;20111;-39
2023/04/02 04:55:49;;;;;;;0.30;0.20;;;11.00;99.90;;;;;;5033228;28;20155;-38
2023/04/02 04:58:39;;;;;;;0.50;0.28;;;11.00;99.90;;;;;;5032978;28;20053;-37
2023/04/02 05:01:37;;;;;;;0.30;0.30;;;11.00;99.90;;;;;;5033916;28;20172;-41
2023/04/02 05:04:22;;;;;;;0.20;0.20;;;11.10;99.90;;;;;;5033128;28;20036;-37
2023/04/02 05:06:59;;;;;;;1.27;0.30;;;11.00;99.90;;;;;;5031695;28;20021;-37
2023/04/02 05:09:40;;;;;;;1.08;0.30;;;11.00;99.90;;;;;;5032911;28;20040;-38
2023/04/02 05:12:44;;;;;;;0.50;0.30;;;11.00;99.90;;;;;;5034186;28;20021;-39
2023/04/02 05:15:12;;;;;;;0.47;0.30;;;11.00;99.90;;;;;;5032110;28;20025;-38
2023/04/02 05:18:12;;;;;;;0.32;0.20;;;11.00;99.90;;;;;;5031767;28;20034;-38
2023/04/02 05:20:47;;;;;;;0.70;0.40;;;11.00;99.90;;;;;;5032302;28;20025;-38
2023/04/02 05:23:26;;;;;;;1.05;0.40;;;11.00;99.90;;;;;;5033002;28;20399;-39
2023/04/02 05:26:07;;;;;;;1.85;0.30;;;11.00;99.90;;;;;;5032417;28;20025;-37
2023/04/02 05:28:45;;;;;;;0.93;0.30;;;11.00;99.90;;;;;;5032697;28;20028;-36
2023/04/02 05:31:40;;;;;;;0.38;0.30;;;11.00;99.90;;;;;;5032589;28;20386;-37
2023/04/02 05:34:07;;;;;;;0.50;0.20;;;11.00;99.90;;;;;;5032466;28;20109;-38
2023/04/02 05:36:33;;;;;;;1.27;0.30;;;11.00;99.90;;;;;;5032138;28;20022;-36
2023/04/02 05:38:59;;;;;;;0.68;0.30;;;11.00;99.90;;;;;;5032656;28;20025;-43
2023/04/02 05:41:53;;;;;;;0.82;0.40;;;11.00;99.90;;;;;;5032177;28;20029;-36
2023/04/02 05:44:28;;;;;;;0.70;0.35;;;11.00;99.90;;;;;;5024087;28;20297;-36
2023/04/02 05:46:57;;;;;;;0.40;0.30;;;11.00;99.90;;;;;;5031960;28;20032;-36
2023/04/02 05:49:30;;;;;;;0.45;0.20;;;11.00;99.90;;;;;;5031530;28;20025;-37
2023/04/02 05:52:00;;;;;;;0.52;0.32;;;11.00;99.90;;;;;;5031730;28;20029;-36
2023/04/02 05:54:33;;;;;;;0.43;0.30;;;11.00;99.90;;;;;;5031894;28;20041;-38
2023/04/02 05:57:08;;;;;;;0.70;0.30;;;11.00;99.90;;;;;;5030896;28;20029;-39
2023/04/02 05:59:39;;;;;;;0.30;0.30;;;11.00;99.90;;;;;;5031631;28;20175;-38
2023/04/02 06:02:35;;;;;;;0.63;0.30;;;11.00;99.90;;;;;;5031707;28;20087;-38
2023/04/02 06:05:16;;;;;;;0.57;0.30;;;11.00;99.90;;;;;;5029250;28;20068;-39
2023/04/02 06:08:15;;;;;;;0.40;0.30;;;11.00;99.90;;;;;;5030781;28;20021;-37
2023/04/02 06:10:53;;;;;;;0.70;0.35;;;11.00;99.90;;;;;;5031169;28;20021;-38
2023/04/02 06:13:19;;;;;;;1.27;0.50;;;11.00;99.90;;;;;;5031216;28;20021;-41
2023/04/02 06:15:46;;;;;;;2.13;0.30;;;11.00;99.90;;;;;;5030641;28;20021;-37
2023/04/02 06:18:16;;;;;;;0.52;0.22;;;11.00;99.90;;;;;;5031168;28;20033;-39
2023/04/02 06:20:42;;;;;;;0.73;0.40;;;11.00;99.90;;;;;;5031601;28;20048;-37
2023/04/02 06:23:45;;;;;;;0.60;0.40;;;11.00;99.90;;;;;;5031196;28;20040;-38
2023/04/02 06:26:13;;;;;;;0.60;0.30;;;11.00;99.90;;;;;;5030300;28;20021;-39
2023/04/02 06:28:41;;;;;;;0.20;0.20;;;11.00;99.90;;;;;;5031400;28;20468;-37
2023/04/02 06:31:14;;;;;;;0.30;0.30;;;11.00;99.90;;;;;;5031446;28;20067;-37
2023/04/02 06:33:39;;;;;;;0.43;0.30;;;11.00;99.90;;;;;;5030978;28;20391;-36
2023/04/02 06:36:07;;;;;;;0.70;0.45;;;11.00;99.90;;;;;;5030434;28;20029;-39
2023/04/02 06:38:35;;;;;;;0.57;0.20;;;11.00;99.90;;;;;;5031191;28;20025;-40
2023/04/02 06:41:10;;;;;;;1.00;0.38;;;11.00;99.90;;;;;;5030916;28;20021;-38
2023/04/02 06:43:47;;;;;;;1.35;0.38;;;11.00;99.90;;;;;;5031980;28;20021;-36
2023/04/02 06:46:20;;;;;;;1.05;0.40;;;11.00;99.90;;;;;;5032244;28;20486;-38
2023/04/02 06:48:51;;;;;;;4.55;2.22;;;11.00;99.90;;;;;;5031036;28;20022;-40
2023/04/02 06:51:21;;;;;;;3.92;2.10;;;11.00;99.90;;;;;;5031343;28;20029;-39
2023/04/02 06:53:48;;;;;;;2.33;1.10;;;11.00;99.90;;;;;;5032193;28;20022;-36
2023/04/02 06:56:41;;;;;;;1.65;0.82;;;11.10;99.90;;;;;;5031034;28;20091;-38
2023/04/02 06:59:08;;;;;;;2.40;1.00;;;11.00;99.90;;;;;;5034387;28;20013;-39
2023/04/02 07:01:43;;;;;;;2.92;1.30;;;11.10;99.90;;;;;;5035415;28;20071;-38
2023/04/02 07:04:10;;;;;;;1.77;0.90;;;11.10;99.90;;;;;;5035600;28;20040;-36
2023/04/02 07:06:35;;;;;;;1.70;1.05;;;11.10;99.90;;;;;;5035642;28;20056;-39
2023/04/02 07:09:03;;;;;;;1.92;1.08;;;11.10;99.90;;;;;;5036105;28;20049;-36
2023/04/02 07:11:29;;;;;;;2.55;1.13;;;11.00;99.90;;;;;;5035733;28;20026;-36
2023/04/02 07:13:55;;;;;;;2.13;1.10;;;11.10;99.90;;;;;;5035519;28;20056;-41
2023/04/02 07:16:26;;;;;;;3.35;1.33;;;11.10;99.90;;;;;;5035217;28;20021;-37
2023/04/02 07:18:57;;;;;;;1.90;1.05;;;11.10;99.90;;;;;;5035102;28;20021;-37
2023/04/02 07:21:24;;;;;;;1.60;1.00;;;11.00;99.90;;;;;;5035109;28;20522;-39
2023/04/02 07:23:50;;;;;;;2.20;1.08;;;11.10;99.90;;;;;;5034785;28;20029;-36
2023/04/02 07:26:19;;;;;;;1.85;0.90;;;11.10;99.90;;;;;;5035944;28;20021;-36
2023/04/02 07:28:45;;;;;;;1.50;0.90;;;11.10;99.90;;;;;;5035180;28;20527;-36
2023/04/02 07:31:16;;;;;;;1.73;0.93;;;11.10;99.90;;;;;;5034665;28;20110;-36
2023/04/02 07:33:43;;;;;;;2.05;1.10;;;11.10;99.90;;;;;;5035110;28;20029;-38
2023/04/02 07:36:17;;;;;;;2.05;1.05;;;11.10;99.90;;;;;;5035292;28;20423;-37
2023/04/02 07:38:43;;;;;;;2.47;1.10;;;11.10;99.90;;;;;;5035004;28;20068;-37
2023/04/02 07:41:09;;;;;;;1.38;0.75;;;11.10;99.90;;;;;;5034658;28;20053;-38
2023/04/02 07:43:35;;;;;;;1.63;1.00;;;11.10;99.90;;;;;;5033741;28;20388;-39
2023/04/02 07:46:01;;;;;;;1.50;0.80;;;11.10;99.90;;;;;;5034729;28;20025;-39
2023/04/02 07:48:27;;;;;;;1.42;1.00;;;11.10;99.90;;;;;;5034166;28;20022;-37
2023/04/02 07:50:54;;;;;;;1.70;1.00;;;11.10;99.90;;;;;;5034404;28;20031;-37
2023/04/02 07:53:31;;;;;;;1.42;0.70;;;11.10;99.90;;;;;;5034211;28;20032;-36
2023/04/02 07:56:01;;;;;;;1.70;0.93;;;11.10;99.90;;;;;;5033307;28;20060;-38
2023/04/02 07:58:29;;;;;;;1.80;1.10;;;11.10;99.90;;;;;;5034519;28;20507;-36
2023/04/02 08:00:54;;;;;;;1.27;0.80;;;11.20;99.90;;;;;;5035085;28;20033;-40
2023/04/02 08:03:20;;;;;;;4.03;1.10;;;11.20;99.90;;;;;;5034672;28;20032;-38
2023/04/02 08:05:53;;;;;;;1.88;0.82;;;11.20;99.90;;;;;;5033655;28;20885;-36
2023/04/02 08:08:20;;;;;;;2.17;1.30;;;11.20;99.90;;;;;;5034569;28;20029;-36
2023/04/02 08:10:46;;;;;;;1.67;0.90;;;11.20;99.90;;;;;;5033074;28;20053;-36
2023/04/02 08:13:12;;;;;;;1.48;0.80;;;11.10;99.90;;;;;;5034735;28;20065;-38
2023/04/02 08:15:38;;;;;;;1.55;1.00;;;11.20;99.90;;;;;;5034192;28;20048;-36
2023/04/02 08:18:05;;;;;;;1.38;0.85;;;11.20;99.90;;;;;;5033109;28;20531;-39
2023/04/02 08:20:30;;;;;;;1.98;0.85;;;11.20;99.90;;;;;;5033952;28;20030;-37
2023/04/02 08:22:57;;;;;;;1.63;1.00;;;11.20;99.90;;;;;;5034154;28;20028;-36
2023/04/02 08:25:23;;;;;;;1.80;0.88;;;11.20;99.90;;;;;;5033721;28;20394;-36
2023/04/02 08:27:49;;;;;;;1.85;0.80;;;11.20;99.90;;;;;;5033535;28;20051;-39
2023/04/02 08:30:16;;;;;;;1.70;1.00;;;11.20;99.90;;;;;;5032565;28;20021;-35
2023/04/02 08:32:42;;;;;;;2.08;1.23;;;11.20;99.90;;;;;;5033682;28;20029;-35
2023/04/02 08:35:09;;;;;;;1.55;0.82;;;11.20;99.90;;;;;;5032781;28;20036;-36
2023/04/02 08:37:35;;;;;;;1.80;0.88;;;11.20;99.90;;;;;;5032330;28;20053;-38
2023/04/02 08:40:02;;;;;;;4.07;0.98;;;11.20;99.90;;;;;;5032929;28;20114;-39
2023/04/02 08:42:45;;;;;;;1.95;0.85;;;11.20;99.90;;;;;;5032827;28;20026;-36
2023/04/02 08:45:29;;;;;;;2.15;1.00;;;11.20;99.90;;;;;;5031187;28;20033;-38
2023/04/02 08:47:57;;;;;;;1.88;0.90;;;11.30;99.90;;;;;;5033018;28;20021;-36
2023/04/02 08:50:35;;;;;;;1.25;0.90;;;11.20;99.90;;;;;;5033508;28;20025;-38
2023/04/02 08:53:05;;;;;;;1.50;0.90;;;11.30;99.90;;;;;;5033076;28;20399;-38
2023/04/02 08:55:41;;;;;;;1.88;0.93;;;11.30;99.90;;;;;;5031021;28;20554;-36
2023/04/02 08:58:07;;;;;;;1.80;0.85;;;11.20;99.90;;;;;;5032204;28;20057;-36
2023/04/02 09:00:38;;;;;;;1.63;0.80;;;11.30;99.90;;;;;;5032335;28;20445;-36
2023/04/02 09:03:29;;;;;;;1.55;0.98;;;11.30;99.90;;;;;;5032298;28;20061;-38
2023/04/02 09:05:57;;;;;;;1.75;0.90;;;11.30;99.90;;;;;;5028413;28;20053;-36
2023/04/02 09:08:25;;;;;;;1.85;0.90;;;11.30;99.90;;;;;;5032134;28;20120;-36
2023/04/02 09:11:09;;;;;;;1.33;0.95;;;11.30;99.90;;;;;;5032272;28;20025;-39
2023/04/02 09:13:43;;;;;;;1.10;0.90;;;11.30;99.90;;;;;;5032610;28;20032;-36
2023/04/02 09:16:15;;;;;;;1.55;0.80;;;11.30;99.90;;;;;;5031825;28;20037;-39
2023/04/02 09:18:43;;;;;;;1.13;0.70;;;11.30;99.90;;;;;;5032060;28;20742;-36
2023/04/02 09:21:21;;;;;;;1.23;0.70;;;11.30;99.90;;;;;;5031883;28;20550;-36
2023/04/02 09:23:47;;;;;;;1.92;0.88;;;11.30;99.90;;;;;;5031957;28;20033;-36
2023/04/02 09:26:29;;;;;;;1.90;1.00;;;11.30;99.90;;;;;;5031491;28;20034;-38
2023/04/02 09:29:06;;;;;;;3.20;1.05;;;11.30;99.90;;;;;;5030812;28;20492;-39
2023/04/02 09:31:42;;;;;;;1.85;0.85;;;11.40;99.90;;;;;;5034034;28;20032;-40
2023/04/02 09:34:28;;;;;;;1.30;0.80;;;11.30;99.90;;;;;;5033008;28;20024;-41
2023/04/02 09:36:54;;;;;;;1.95;1.10;;;11.30;99.90;;;;;;5031080;28;20033;-38
2023/04/02 09:39:25;;;;;;;0.88;0.60;;;11.30;99.90;;;;;;5032146;28;20048;-36
2023/04/02 09:41:51;;;;;;;1.65;0.80;;;11.40;99.90;;;;;;5032850;28;20021;-38
2023/04/02 09:44:25;;;;;;;1.38;0.80;;;11.40;99.90;;;;;;5032623;28;20032;-42
2023/04/02 09:47:27;;;;;;;1.10;0.60;;;11.40;99.90;;;;;;5031932;28;20025;-36
2023/04/02 09:49:53;;;;;;;1.23;0.88;;;11.30;99.90;;;;;;5033180;28;20056;-36
2023/04/02 09:52:28;;;;;;;1.25;0.77;;;11.40;99.90;;;;;;5032163;28;20052;-38
2023/04/02 09:55:14;;;;;;;1.45;0.75;;;11.40;99.90;;;;;;5032391;28;20472;-36
2023/04/02 09:57:41;;;;;;;1.60;0.75;;;11.40;99.90;;;;;;5028127;28;20045;-37
2023/04/02 10:00:21;;;;;;;1.55;0.82;;;11.40;99.90;;;;;;5032722;28;20392;-38
2023/04/02 10:03:04;;;;;;;1.48;0.80;;;11.40;99.90;;;;;;5032617;28;20048;-36
2023/04/02 10:05:32;;;;;;;2.20;0.95;;;11.30;99.90;;;;;;5032319;28;20036;-38
2023/04/02 10:08:23;;;;;;;2.50;0.88;;;11.40;99.90;;;;;;5032536;28;20399;-37
2023/04/02 10:10:53;;;;;;;1.17;0.80;;;11.40;99.90;;;;;;5032659;28;20023;-37
2023/04/02 10:13:59;;;;;;;1.33;0.77;;;11.40;99.90;;;;;;5032750;28;20373;-37
2023/04/02 10:16:31;;;;;;;1.33;0.90;;;11.40;99.90;;;;;;5026669;28;20128;-38
2023/04/02 10:19:02;;;;;;;2.33;1.05;;;11.40;99.90;;;;;;5032723;28;20100;-36
2023/04/02 10:21:32;;;;;;;0.88;0.70;;;11.40;99.90;;;;;;5032210;28;20022;-37
2023/04/02 10:23:58;;;;;;;1.33;0.73;;;11.40;99.90;;;;;;5032044;28;20511;-36
2023/04/02 10:26:50;;;;;;;2.20;1.00;;;11.40;99.90;;;;;;5031293;28;20064;-38
2023/04/02 10:29:30;;;;;;;1.40;0.80;;;11.40;99.90;;;;;;5028656;28;20056;-36
2023/04/02 10:32:11;;;;;;;0.98;0.60;;;11.40;99.90;;;;;;5033539;28;20029;-38
2023/04/02 10:35:03;;;;;;;1.92;0.85;;;11.40;99.90;;;;;;5038148;28;20060;-38
2023/04/02 10:37:53;;;;;;;1.45;0.80;;;11.40;99.90;;;;;;5037608;28;20104;-39
2023/04/02 10:40:41;;;;;;;0.85;0.60;;;11.40;99.90;;;;;;5039905;28;20040;-36
2023/04/02 10:43:35;;;;;;;1.65;0.70;;;11.40;99.90;;;;;;5039869;28;20040;-38
2023/04/02 10:46:32;;;;;;;0.70;0.40;;;11.40;99.90;;;;;;5038071;28;20144;-38
2023/04/02 10:49:09;;;;;;;1.58;0.75;;;11.40;99.90;;;;;;5038433;28;20438;-37
2023/04/02 10:51:42;;;;;;;0.82;0.70;;;11.40;99.90;;;;;;5038672;28;20434;-36
2023/04/02 10:54:29;;;;;;;1.95;0.68;;;11.40;99.90;;;;;;5037752;28;20037;-38
2023/04/02 10:57:01;;;;;;;1.50;0.70;;;11.40;99.90;;;;;;5037648;28;20022;-37
2023/04/02 10:59:31;;;;;;;0.98;0.55;;;11.40;99.90;;;;;;5039916;28;20511;-38
2023/04/02 11:02:00;;;;;;;1.55;0.73;;;11.40;99.90;;;;;;5037700;28;20086;-36
2023/04/02 11:04:42;;;;;;;0.90;0.60;;;11.40;99.90;;;;;;5037463;28;20033;-39
2023/04/02 11:07:16;;;;;;;1.02;0.77;;;11.40;99.90;;;;;;5037545;28;20104;-37
2023/04/02 11:09:46;;;;;;;0.98;0.57;;;11.40;99.90;;;;;;5039028;28;20021;-36
2023/04/02 11:12:41;;;;;;;0.80;0.50;;;11.40;99.90;;;;;;5038067;28;20021;-36
2023/04/02 11:15:18;;;;;;;1.67;0.80;;;11.40;99.90;;;;;;5037478;28;20037;-38
2023/04/02 11:17:45;;;;;;;1.40;0.60;;;11.40;99.90;;;;;;5036852;28;20175;-36
2023/04/02 11:20:42;;;;;;;0.93;0.70;;;11.40;99.90;;;;;;5037561;28;20037;-35
2023/04/02 11:23:19;;;;;;;1.13;0.73;;;11.30;99.90;;;;;;5038675;28;20044;-36
2023/04/02 11:25:46;;;;;;;0.80;0.60;;;11.40;99.90;;;;;;5036865;28;20060;-36
2023/04/02 11:28:32;;;;;;;1.23;0.70;;;11.40;99.90;;;;;;5038118;28;20049;-39
2023/04/02 11:30:58;;;;;;;0.98;0.68;;;11.40;99.90;;;;;;5038344;28;20033;-38
2023/04/02 11:33:34;;;;;;;0.63;0.50;;;11.40;99.90;;;;;;5038365;28;20029;-38
2023/04/02 11:36:01;;;;;;;1.15;0.70;;;11.40;99.90;;;;;;5037432;28;20331;-37
2023/04/02 11:38:46;;;;;;;1.13;0.70;;;11.40;99.90;;;;;;5037160;28;20017;-39
2023/04/02 11:41:12;;;;;;;1.08;0.52;;;11.40;99.90;;;;;;5037678;28;20017;-37
2023/04/02 11:43:40;;;;;;;1.05;0.68;;;11.40;99.90;;;;;;5036743;28;20591;-35
2023/04/02 11:46:32;;;;;;;1.95;0.80;;;11.40;99.90;;;;;;5033933;28;20128;-39
2023/04/02 11:49:38;;;;;;;0.73;0.52;;;11.40;99.90;;;;;;5032174;28;20052;-38
2023/04/02 11:52:17;;;;;;;0.52;0.50;;;11.40;99.90;;;;;;5034961;28;20060;-38
2023/04/02 11:54:43;;;;;;;1.05;0.70;;;11.40;99.90;;;;;;5034554;28;20379;-36
2023/04/02 11:57:25;;;;;;;0.93;0.52;;;11.40;99.90;;;;;;5033190;28;20033;-37
2023/04/02 12:00:20;;;;;;;1.00;0.70;;;11.40;99.90;;;;;;5033580;28;20033;-39
2023/04/02 12:03:01;;;;;;;;;;;11.30;99.90;;;;;;5033152;28;20407;-35
2023/04/02 12:05:47;;;;;;;1.35;0.60;;;11.30;99.90;;;;;;5033652;28;19913;-38
2023/04/02 12:08:38;;;;;;;0.93;0.60;;;11.40;99.90;;;;;;5035214;28;20422;-36
2023/04/02 12:11:05;;;;;;;1.15;0.70;;;11.40;99.90;;;;;;5033875;28;20430;-39
2023/04/02 12:13:57;;;;;;;1.15;0.50;;;11.40;99.90;;;;;;5034205;28;20476;-38
2023/04/02 12:16:30;;;;;;;1.00;0.50;;;11.40;99.90;;;;;;5032850;28;20061;-40
2023/04/02 12:18:56;;;;;;;1.23;0.60;;;11.40;99.90;;;;;;5034820;28;20411;-40
2023/04/02 12:21:27;;;;;;;0.93;0.52;;;11.30;99.90;;;;;;5033713;28;20448;-41
2023/04/02 12:23:56;;;;;;;0.80;0.63;;;11.40;99.90;;;;;;5033933;28;20063;-43
2023/04/02 12:26:36;;;;;;;1.27;0.63;;;11.40;99.90;;;;;;5033885;28;20017;-37
2023/04/02 12:29:25;;;;;;;0.75;0.50;;;11.40;99.90;;;;;;5033122;28;20103;-36
2023/04/02 12:31:52;;;;;;;0.57;0.40;;;11.40;99.90;;;;;;5034067;28;20022;-37
2023/04/02 12:34:20;;;;;;;0.75;0.43;;;11.30;99.90;;;;;;5033477;28;20123;-35
2023/04/02 12:36:52;;;;;;;1.10;0.60;;;11.40;99.90;;;;;;5032789;28;20111;-36
2023/04/02 12:39:18;;;;;;;0.80;0.40;;;11.40;99.90;;;;;;5033895;28;20041;-37
2023/04/02 12:41:44;;;;;;;1.00;0.57;;;11.40;99.90;;;;;;5034818;28;20056;-38
2023/04/02 12:44:20;;;;;;;1.15;0.60;;;11.40;99.90;;;;;;5033873;28;20065;-38
2023/04/02 12:46:47;;;;;;;0.52;0.40;;;11.40;99.90;;;;;;5032999;28;20072;-36
2023/04/02 12:49:28;;;;;;;1.52;0.50;;;11.40;99.90;;;;;;5033537;28;20114;-37
2023/04/02 12:51:54;;;;;;;0.93;0.43;;;11.40;99.90;;;;;;5032660;28;20033;-36
2023/04/02 12:54:20;;;;;;;1.08;0.68;;;11.40;99.90;;;;;;5033347;28;20394;-36
2023/04/02 12:56:48;;;;;;;1.00;0.60;;;11.40;99.90;;;;;;5031597;28;20036;-40
2023/04/02 12:59:30;;;;;;;0.75;0.60;;;11.40;99.90;;;;;;5033826;28;20549;-39
2023/04/02 13:01:58;;;;;;;0.50;0.40;;;11.40;99.90;;;;;;5033116;28;20029;-40
2023/04/02 13:04:23;;;;;;;1.08;0.60;;;11.40;99.90;;;;;;5032182;28;20032;-37
2023/04/02 13:06:53;;;;;;;0.90;0.70;;;11.40;99.90;;;;;;5030931;28;20017;-38
2023/04/02 13:09:47;;;;;;;0.93;0.50;;;11.40;99.90;;;;;;5032451;28;20056;-37
2023/04/02 13:12:37;;;;;;;0.90;0.50;;;11.40;99.90;;;;;;5031619;28;20226;-36
2023/04/02 13:15:16;;;;;;;1.10;0.60;;;11.40;99.90;;;;;;5033860;28;20483;-36
2023/04/02 13:17:47;;;;;;;1.20;0.57;;;11.50;99.90;;;;;;5033810;28;20029;-40
2023/04/02 13:20:39;;;;;;;0.70;0.50;;;11.40;99.90;;;;;;5033194;28;20028;-39
2023/04/02 13:23:28;;;;;;;1.08;0.63;;;11.40;99.90;;;;;;5032948;28;20079;-36
2023/04/02 13:25:56;;;;;;;0.80;0.60;;;11.50;99.90;;;;;;5031894;28;20475;-39
2023/04/02 13:28:21;;;;;;;0.95;0.68;;;11.40;99.90;;;;;;5034281;28;20030;-36
2023/04/02 13:30:47;;;;;;;0.57;0.50;;;11.40;99.90;;;;;;5033501;28;20079;-36